Time;durP1;ratioP1;P1;durP2;ratioP2;P2;SDS_P1;SDS_P2;PMS_P1;PMS_P2;Temp;Humidity;BMP_temperature;BMP_pressure;BME280_temperature;BME280_humidity;BME280_pressure;Samples;Min_cycle;Max_cycle;Signal;HPM_P1;HPM_P2
2022/04/05 00:01:16;;;;;;;1589.50;999.90;;;;;;;3.80;100.00;99223.97;5054912;28;20067;-79
2022/04/05 00:03:49;;;;;;;1564.55;999.90;;;;;;;3.75;100.00;99230.19;5062725;28;20050;-79
2022/04/05 00:06:23;;;;;;;1557.65;999.90;;;;;;;3.73;100.00;99229.66;5050031;28;20504;-79
2022/04/05 00:08:56;;;;;;;1550.20;999.90;;;;;;;3.77;100.00;99222.66;5046718;28;20049;-78
2022/04/05 00:11:29;;;;;;;1553.57;999.90;;;;;;;3.73;100.00;99225.09;5043847;28;20409;-79
2022/04/05 00:14:03;;;;;;;1556.72;999.90;;;;;;;3.78;100.00;99218.09;5045872;28;20060;-80
2022/04/05 00:16:36;;;;;;;1546.53;999.90;;;;;;;3.66;100.00;99221.88;5062240;28;20041;-80
2022/04/05 00:19:09;;;;;;;1544.70;999.90;;;;;;;3.67;100.00;99214.59;5061451;28;20060;-78
2022/04/05 00:21:45;;;;;;;1537.90;999.90;;;;;;;3.63;100.00;99222.38;5054105;28;20048;-79
2022/04/05 00:24:13;;;;;;;1520.57;999.90;;;;;;;3.61;100.00;99213.00;5060864;28;20048;-79
2022/04/05 00:26:46;;;;;;;1513.95;999.90;;;;;;;3.54;100.00;99214.06;5044614;28;20045;-80
2022/04/05 00:29:16;;;;;;;1508.45;999.90;;;;;;;3.55;100.00;99206.81;5042756;28;20053;-79
2022/04/05 00:31:49;;;;;;;1518.10;999.90;;;;;;;3.65;100.00;99224.81;5056172;28;20048;-79
2022/04/05 00:34:24;;;;;;;1513.35;999.90;;;;;;;3.53;100.00;99219.69;5050936;28;20056;-79
2022/04/05 00:36:58;;;;;;;1505.10;999.90;;;;;;;3.51;100.00;99227.25;5045827;28;20462;-79
2022/04/05 00:39:31;;;;;;;1517.10;999.90;;;;;;;3.50;100.00;99223.72;5054955;28;20040;-79
2022/04/05 00:41:59;;;;;;;1509.13;999.90;;;;;;;3.50;100.00;99212.97;5045320;28;20528;-79
2022/04/05 00:44:28;;;;;;;1512.13;999.90;;;;;;;3.48;100.00;99225.06;5049697;28;20053;-78
2022/04/05 00:47:16;;;;;;;1516.63;999.90;;;;;;;3.46;100.00;99219.97;5046991;28;20421;-80
2022/04/05 00:49:51;;;;;;;1512.43;999.90;;;;;;;3.42;100.00;99216.19;5058699;28;20048;-79
2022/04/05 00:52:24;;;;;;;1505.70;999.90;;;;;;;3.37;100.00;99221.56;5043148;28;20486;-79
2022/04/05 00:54:59;;;;;;;1512.15;999.90;;;;;;;3.35;100.00;99207.59;5055831;28;20849;-78
2022/04/05 00:57:34;;;;;;;1494.75;999.90;;;;;;;3.27;100.00;99208.91;5049032;28;20060;-80
2022/04/05 01:00:10;;;;;;;1509.75;999.90;;;;;;;3.34;100.00;99214.88;5045064;28;20048;-78
2022/04/05 01:02:47;;;;;;;1524.53;999.90;;;;;;;3.32;100.00;99214.31;5048872;28;20547;-79
2022/04/05 01:05:22;;;;;;;1529.40;999.90;;;;;;;3.21;100.00;99204.63;5053395;28;20052;-78
2022/04/05 01:07:59;;;;;;;1540.25;999.90;;;;;;;3.32;100.00;99210.81;5031935;28;20056;-80
2022/04/05 01:10:33;;;;;;;1553.45;999.90;;;;;;;3.42;100.00;99226.94;5064007;28;20048;-80
2022/04/05 01:13:06;;;;;;;1574.05;999.90;;;;;;;3.38;100.00;99225.88;5035935;28;20060;-80
2022/04/05 01:15:36;;;;;;;1586.88;999.90;;;;;;;3.40;100.00;99218.38;5061185;28;20048;-79
2022/04/05 01:18:04;;;;;;;1600.10;999.90;;;;;;;3.32;100.00;99226.97;5049325;28;20048;-80
2022/04/05 01:20:33;;;;;;;1616.55;999.90;;;;;;;3.30;100.00;99224.53;5058350;28;20057;-79
2022/04/05 01:23:01;;;;;;;1609.00;999.90;;;;;;;3.20;100.00;99229.88;5065241;28;20410;-79
2022/04/05 01:25:31;;;;;;;1599.50;999.90;;;;;;;3.09;100.00;99231.75;5050323;28;20048;-79
2022/04/05 01:27:59;;;;;;;1588.07;999.90;;;;;;;3.06;100.00;99232.28;5048906;28;20488;-80
2022/04/05 01:30:27;;;;;;;1594.22;999.90;;;;;;;3.02;100.00;99223.94;5052777;28;20048;-80
2022/04/05 01:33:00;;;;;;;1596.68;999.90;;;;;;;3.07;100.00;99233.91;5044094;28;20049;-80
2022/04/05 01:35:28;;;;;;;1607.00;999.90;;;;;;;3.03;100.00;99222.06;5067919;28;20060;-79
2022/04/05 01:37:57;;;;;;;1614.35;999.90;;;;;;;3.14;100.00;99230.97;5052426;28;20041;-80
2022/04/05 01:40:26;;;;;;;1618.60;999.90;;;;;;;3.09;100.00;99230.94;5051556;28;20057;-79
2022/04/05 01:43:01;;;;;;;1627.68;999.90;;;;;;;3.11;100.00;99226.09;5050446;28;20049;-80
2022/04/05 01:45:29;;;;;;;1624.43;999.90;;;;;;;3.11;100.00;99232.31;5052890;28;20126;-80
2022/04/05 01:48:02;;;;;;;1622.10;999.90;;;;;;;3.06;100.00;99238.47;5054407;28;20088;-79
2022/04/05 01:50:31;;;;;;;1626.82;999.90;;;;;;;3.10;100.00;99229.88;5055769;28;20052;-81
2022/04/05 01:53:04;;;;;;;1627.30;999.90;;;;;;;3.10;100.00;99230.69;5046148;28;20413;-81
2022/04/05 01:55:32;;;;;;;1629.95;999.90;;;;;;;3.15;100.00;99227.19;5063096;28;20036;-80
2022/04/05 01:58:07;;;;;;;1629.32;999.90;;;;;;;3.20;100.00;99228.03;5041974;28;20053;-80
2022/04/05 02:00:40;;;;;;;1638.30;999.90;;;;;;;3.17;100.00;99228.53;5050057;28;20060;-81
2022/04/05 02:03:13;;;;;;;1637.50;999.90;;;;;;;3.14;100.00;99231.75;5051098;28;20389;-79
2022/04/05 02:05:48;;;;;;;1644.97;999.90;;;;;;;3.23;100.00;99234.72;5050827;28;20041;-79
2022/04/05 02:08:23;;;;;;;1657.10;999.90;;;;;;;3.36;100.00;99228.84;5041919;28;20462;-80
2022/04/05 02:10:56;;;;;;;1661.78;999.90;;;;;;;3.39;100.00;99228.28;5046359;28;20041;-80
2022/04/05 02:13:28;;;;;;;1663.43;999.90;;;;;;;3.37;100.00;99224.25;5046518;28;20049;-79
2022/04/05 02:16:02;;;;;;;1668.00;999.90;;;;;;;3.48;100.00;99228.59;5049997;28;20053;-79
2022/04/05 02:18:37;;;;;;;1667.80;999.90;;;;;;;3.38;100.00;99233.94;5029111;28;20037;-79
2022/04/05 02:21:06;;;;;;;1677.05;999.90;;;;;;;3.51;100.00;99232.63;5034665;28;20053;-80
2022/04/05 02:23:40;;;;;;;1675.55;999.90;;;;;;;3.49;100.00;99234.75;5044946;28;20048;-79
2022/04/05 02:26:18;;;;;;;1674.68;999.90;;;;;;;3.50;100.00;99242.56;5041398;28;20052;-78
2022/04/05 02:28:52;;;;;;;1669.53;999.90;;;;;;;3.47;100.00;99251.16;5051299;28;20049;-80
2022/04/05 02:31:29;;;;;;;1667.43;999.90;;;;;;;3.51;100.00;99256.84;5043752;28;20041;-80
2022/04/05 02:33:59;;;;;;;1664.30;999.90;;;;;;;3.52;100.00;99261.94;5048770;28;20056;-80
2022/04/05 02:36:40;;;;;;;1657.75;999.90;;;;;;;3.36;100.00;99279.13;5044547;28;20045;-79
2022/04/05 02:39:13;;;;;;;1640.63;999.90;;;;;;;3.15;100.00;99279.09;5049684;28;20050;-80
2022/04/05 02:41:42;;;;;;;1630.53;999.90;;;;;;;3.01;100.00;99273.41;5053653;28;20041;-79
2022/04/05 02:44:12;;;;;;;1607.95;999.90;;;;;;;2.85;100.00;99271.75;5047226;28;20042;-80
2022/04/05 02:46:46;;;;;;;1614.55;999.90;;;;;;;2.88;100.00;99277.38;5062369;28;20514;-81
2022/04/05 02:49:21;;;;;;;1621.38;999.90;;;;;;;2.92;100.00;99277.66;5052272;28;20060;-80
2022/04/05 02:51:54;;;;;;;1627.40;999.90;;;;;;;2.91;100.00;99288.69;5053954;28;20528;-78
2022/04/05 02:54:35;;;;;;;1628.85;999.90;;;;;;;2.94;100.00;99288.97;5052364;28;20049;-79
2022/04/05 02:57:05;;;;;;;1636.88;999.90;;;;;;;2.99;100.00;99280.91;5049357;28;20050;-80
2022/04/05 02:59:35;;;;;;;1636.13;999.90;;;;;;;2.89;100.00;99292.44;5058810;28;20476;-79
2022/04/05 03:02:08;;;;;;;1623.18;999.90;;;;;;;2.83;100.00;99298.03;5065085;28;20052;-80
2022/04/05 03:04:44;;;;;;;1622.78;999.90;;;;;;;2.79;100.00;99289.72;5049560;28;20046;-80
2022/04/05 03:07:12;;;;;;;1617.18;999.90;;;;;;;2.84;100.00;99302.34;5062944;28;20493;-80
2022/04/05 03:09:41;;;;;;;1612.22;999.90;;;;;;;2.79;100.00;99300.47;5060497;28;20045;-80
2022/04/05 03:12:18;;;;;;;1605.18;999.90;;;;;;;2.75;100.00;99285.13;5060830;28;20064;-79
2022/04/05 03:14:55;;;;;;;1604.28;999.90;;;;;;;2.67;100.00;99303.34;5059745;28;20040;-80
2022/04/05 03:17:29;;;;;;;1594.18;999.90;;;;;;;2.69;100.00;99306.59;5053021;28;20060;-79
2022/04/05 03:20:04;;;;;;;1591.90;999.90;;;;;;;2.63;100.00;99306.84;5052121;28;20048;-79
2022/04/05 03:22:37;;;;;;;1591.05;999.90;;;;;;;2.60;100.00;99310.06;5044604;28;20068;-80
2022/04/05 03:25:11;;;;;;;1588.93;999.90;;;;;;;2.61;100.00;99315.16;5051127;28;20151;-80
2022/04/05 03:27:46;;;;;;;1591.68;999.90;;;;;;;2.60;100.00;99318.09;5043860;28;20040;-79
2022/04/05 03:30:24;;;;;;;1585.03;999.90;;;;;;;2.52;100.00;99314.03;5064239;28;20056;-80
2022/04/05 03:32:59;;;;;;;1590.00;999.90;;;;;;;2.68;100.00;99323.78;5064577;28;20056;-80
2022/04/05 03:35:33;;;;;;;1589.63;999.90;;;;;;;2.60;100.00;99316.22;5052373;28;20045;-80
2022/04/05 03:38:06;;;;;;;1584.43;999.90;;;;;;;2.68;100.00;99322.97;5053493;28;20054;-80
2022/04/05 03:40:40;;;;;;;1584.45;999.90;;;;;;;2.65;100.00;99320.78;5045395;28;20786;-80
2022/04/05 03:43:13;;;;;;;1576.22;999.90;;;;;;;2.62;100.00;99327.50;5050718;28;20068;-79
2022/04/05 03:45:53;;;;;;;;;;;;;;;2.66;100.00;99323.22;5064631;28;20053;-79
2022/04/05 03:48:27;;;;;;;1575.35;999.90;;;;;;;2.70;100.00;99323.53;5048926;28;20385;-80
2022/04/05 03:51:09;;;;;;;1574.15;999.90;;;;;;;2.68;100.00;99329.16;5054391;28;20053;-79
2022/04/05 03:53:54;;;;;;;1568.35;999.90;;;;;;;2.50;100.00;99333.09;5045042;28;20472;-80
2022/04/05 03:56:30;;;;;;;1571.18;999.90;;;;;;;2.50;100.00;99337.63;5042335;28;20053;-80
2022/04/05 03:59:06;;;;;;;1562.65;999.90;;;;;;;2.46;100.00;99340.03;5050445;28;20060;-79
2022/04/05 04:01:41;;;;;;;1569.05;999.90;;;;;;;2.47;100.00;99352.41;5051891;28;20057;-79
2022/04/05 04:04:14;;;;;;;1570.38;999.90;;;;;;;2.48;100.00;99345.94;5055604;28;20501;-80
2022/04/05 04:06:48;;;;;;;1563.03;999.90;;;;;;;2.39;100.00;99355.56;5048507;28;20060;-80
2022/04/05 04:09:21;;;;;;;1558.32;999.90;;;;;;;2.32;100.00;99361.16;5051390;28;20049;-79
2022/04/05 04:11:54;;;;;;;1552.13;999.90;;;;;;;2.30;100.00;99365.97;5044173;28;20040;-80
2022/04/05 04:14:31;;;;;;;1549.50;999.90;;;;;;;2.25;100.00;99365.94;5045418;28;20413;-79
2022/04/05 04:17:16;;;;;;;1546.85;999.90;;;;;;;2.23;100.00;99375.31;5075939;28;20044;-79
2022/04/05 04:19:49;;;;;;;1547.35;999.90;;;;;;;2.21;100.00;99381.75;5045379;28;20052;-79
2022/04/05 04:22:23;;;;;;;1550.85;999.90;;;;;;;2.15;100.00;99372.03;5067960;28;20053;-79
2022/04/05 04:24:57;;;;;;;1543.47;999.90;;;;;;;2.20;100.00;99384.69;5062968;28;20060;-80
2022/04/05 04:27:31;;;;;;;1530.20;999.90;;;;;;;2.14;100.00;99391.91;5058606;28;20052;-80
2022/04/05 04:30:05;;;;;;;1519.50;999.90;;;;;;;2.20;100.00;99382.81;5037974;28;20496;-80
2022/04/05 04:32:40;;;;;;;1508.22;999.90;;;;;;;2.11;100.00;99397.75;5052262;28;20052;-80
2022/04/05 04:35:13;;;;;;;1496.35;999.90;;;;;;;2.03;100.00;99400.91;5059678;28;20048;-79
2022/04/05 04:37:46;;;;;;;1494.45;999.90;;;;;;;1.99;100.00;99405.97;5043605;28;20088;-80
2022/04/05 04:40:14;;;;;;;1493.28;999.90;;;;;;;2.07;100.00;99403.91;5048031;28;20059;-79
2022/04/05 04:42:48;;;;;;;1494.85;999.90;;;;;;;2.02;100.00;99410.03;5054082;28;20033;-79
2022/04/05 04:45:23;;;;;;;1488.85;999.90;;;;;;;1.94;100.00;99402.44;5059226;28;20064;-79
2022/04/05 04:47:53;;;;;;;1478.90;999.90;;;;;;;1.90;100.00;99412.06;5044036;28;20373;-79
2022/04/05 04:50:26;;;;;;;1474.65;999.90;;;;;;;1.92;100.00;99412.59;5044769;28;20048;-80
2022/04/05 04:52:59;;;;;;;1481.15;999.90;;;;;;;1.86;100.00;99409.91;5052176;28;20431;-78
2022/04/05 04:55:28;;;;;;;1476.78;999.90;;;;;;;1.82;100.00;99406.09;5048305;28;20057;-79
2022/04/05 04:58:01;;;;;;;1484.00;999.90;;;;;;;1.89;100.00;99421.97;5047116;28;20057;-81
2022/04/05 05:00:34;;;;;;;1480.47;999.90;;;;;;;1.92;100.00;99423.34;5054073;28;20400;-78
2022/04/05 05:03:08;;;;;;;1481.55;999.90;;;;;;;1.84;100.00;99430.78;5058169;28;20056;-80
2022/04/05 05:05:41;;;;;;;1490.88;999.90;;;;;;;1.83;100.00;99425.69;5041909;28;20061;-79
2022/04/05 05:08:14;;;;;;;1492.28;999.90;;;;;;;1.88;100.00;99436.47;5051706;28;20452;-81
2022/04/05 05:10:42;;;;;;;1490.80;999.90;;;;;;;1.83;100.00;99445.25;5048872;28;20421;-80
2022/04/05 05:13:17;;;;;;;1496.38;999.90;;;;;;;1.85;100.00;99443.16;5053854;28;20046;-81
2022/04/05 05:15:50;;;;;;;1498.38;999.90;;;;;;;1.89;100.00;99438.06;5046591;28;20044;-80
2022/04/05 05:18:20;;;;;;;1504.88;999.90;;;;;;;1.99;100.00;99453.44;5047573;28;20045;-81
2022/04/05 05:20:53;;;;;;;1510.13;999.90;;;;;;;2.07;100.00;99457.56;5051678;28;20565;-80
2022/04/05 05:23:21;;;;;;;1517.68;999.90;;;;;;;2.10;100.00;99465.94;5040781;28;20057;-81
2022/04/05 05:25:54;;;;;;;1519.78;999.90;;;;;;;2.09;100.00;99466.19;5045689;28;20051;-81
2022/04/05 05:28:22;;;;;;;1519.65;999.90;;;;;;;2.10;100.00;99473.97;5044181;28;20053;-81
2022/04/05 05:30:55;;;;;;;1525.35;999.90;;;;;;;2.13;100.00;99470.00;5045847;28;20044;-81
2022/04/05 05:33:31;;;;;;;1525.85;999.90;;;;;;;2.18;100.00;99475.38;5048003;28;20061;-81
2022/04/05 05:36:04;;;;;;;1529.15;999.90;;;;;;;2.29;100.00;99468.25;5057183;28;20057;-80
2022/04/05 05:38:37;;;;;;;1534.57;999.90;;;;;;;2.34;100.00;99479.84;5045035;28;20508;-80
2022/04/05 05:41:06;;;;;;;1539.03;999.90;;;;;;;2.40;100.00;99483.38;5043845;28;20064;-80
2022/04/05 05:43:40;;;;;;;1537.65;999.90;;;;;;;2.45;100.00;99486.09;5042331;28;20051;-80
2022/04/05 05:46:14;;;;;;;1532.20;999.90;;;;;;;2.45;100.00;99491.47;5051284;28;20057;-80
2022/04/05 05:48:48;;;;;;;1524.00;999.90;;;;;;;2.49;100.00;99487.22;5052593;28;20041;-81
2022/04/05 05:51:16;;;;;;;1536.47;999.90;;;;;;;2.51;100.00;99495.84;5045970;28;20423;-80
2022/04/05 05:53:49;;;;;;;1423.53;999.90;;;;;;;2.51;100.00;99487.78;5048841;28;20427;-80
2022/04/05 05:56:23;;;;;;;1370.00;999.90;;;;;;;2.57;100.00;99490.50;5051800;28;20051;-80
2022/04/05 05:58:56;;;;;;;1379.07;999.90;;;;;;;2.72;100.00;99498.66;5051854;28;20052;-80
2022/04/05 06:01:29;;;;;;;1390.20;999.90;;;;;;;2.84;100.00;99496.63;5045389;28;20493;-80
2022/04/05 06:03:58;;;;;;;1395.05;999.90;;;;;;;2.91;100.00;99507.16;5045227;28;20049;-80
2022/04/05 06:06:31;;;;;;;1403.97;999.90;;;;;;;2.95;100.00;99510.94;5045132;28;20041;-81
2022/04/05 06:09:04;;;;;;;1407.40;999.90;;;;;;;2.96;100.00;99512.56;5042213;28;20049;-80
2022/04/05 06:11:37;;;;;;;1416.25;999.90;;;;;;;3.10;100.00;99506.75;5035562;28;20417;-80
2022/04/05 06:14:10;;;;;;;1428.95;999.90;;;;;;;3.09;100.00;99513.19;5036513;28;20053;-81
2022/04/05 06:16:43;;;;;;;1433.35;999.90;;;;;;;3.19;100.00;99515.94;5064835;28;20057;-81
2022/04/05 06:19:18;;;;;;;1435.78;999.90;;;;;;;3.24;100.00;99518.66;5055276;28;20064;-80
2022/04/05 06:21:47;;;;;;;1446.30;999.90;;;;;;;3.36;100.00;99519.28;5045377;28;20662;-80
2022/04/05 06:24:15;;;;;;;1443.72;999.90;;;;;;;3.40;100.00;99525.75;5045437;28;20059;-81
2022/04/05 06:26:43;;;;;;;1443.65;999.90;;;;;;;3.50;100.00;99529.56;5049755;28;20060;-81
2022/04/05 06:29:16;;;;;;;1448.55;999.90;;;;;;;3.55;100.00;99530.41;5041442;28;20060;-80
2022/04/05 06:31:49;;;;;;;1454.05;999.90;;;;;;;3.64;100.00;99530.72;5054120;28;20401;-80
2022/04/05 06:34:25;;;;;;;1442.53;999.90;;;;;;;3.60;100.00;99536.88;5039547;28;20072;-81
2022/04/05 06:36:58;;;;;;;1423.82;999.90;;;;;;;3.57;100.00;99538.22;5050606;28;20048;-81
2022/04/05 06:39:26;;;;;;;1401.57;999.90;;;;;;;3.57;100.00;99533.63;5052422;28;20060;-80
2022/04/05 06:42:00;;;;;;;1401.38;999.90;;;;;;;3.80;100.00;99544.22;5047301;28;20057;-80
2022/04/05 06:44:28;;;;;;;1392.53;999.90;;;;;;;3.78;100.00;99543.69;5038987;28;20068;-82
2022/04/05 06:47:01;;;;;;;1388.70;999.90;;;;;;;3.84;100.00;99545.31;5040148;28;20049;-80
2022/04/05 06:49:35;;;;;;;1381.05;999.90;;;;;;;3.98;100.00;99551.84;5037532;28;20413;-81
2022/04/05 06:52:08;;;;;;;1365.78;999.90;;;;;;;3.79;100.00;99550.69;5042744;28;20053;-79
2022/04/05 06:54:42;;;;;;;1351.60;999.90;;;;;;;4.02;100.00;99560.19;5054343;28;20538;-80
2022/04/05 06:57:16;;;;;;;1343.88;999.90;;;;;;;3.99;100.00;99556.16;5047022;28;20059;-80
2022/04/05 06:59:49;;;;;;;1341.20;999.90;;;;;;;4.03;100.00;99557.25;5045554;28;20041;-80
2022/04/05 07:02:22;;;;;;;1332.53;999.90;;;;;;;4.08;100.00;99570.72;5045133;28;20049;-80
2022/04/05 07:04:56;;;;;;;1318.03;999.90;;;;;;;4.07;100.00;99577.19;5040725;28;20060;-80
2022/04/05 07:07:24;;;;;;;1295.25;999.90;;;;;;;4.06;100.00;99572.88;5041121;28;20053;-81
2022/04/05 07:09:57;;;;;;;1281.05;999.90;;;;;;;4.23;100.00;99577.25;5039881;28;20056;-81
2022/04/05 07:12:26;;;;;;;1272.25;999.90;;;;;;;4.25;100.00;99575.91;5036958;28;20045;-81
2022/04/05 07:14:59;;;;;;;1257.45;999.90;;;;;;;4.45;100.00;99576.19;5047845;28;20053;-81
2022/04/05 07:17:32;;;;;;;1258.15;999.90;;;;;;;4.65;100.00;99575.44;5043132;28;20041;-81
2022/04/05 07:20:09;;;;;;;1265.15;999.90;;;;;;;4.79;100.00;99573.81;5040508;28;20057;-81
2022/04/05 07:22:47;;;;;;;1244.00;999.90;;;;;;;4.80;100.00;99572.75;5048686;28;20049;-80
2022/04/05 07:25:21;;;;;;;1237.72;999.90;;;;;;;5.01;100.00;99568.16;5033123;28;20060;-81
2022/04/05 07:27:51;;;;;;;1241.55;999.90;;;;;;;4.78;100.00;99566.84;5032525;28;20051;-81
2022/04/05 07:30:20;;;;;;;1204.35;999.90;;;;;;;4.86;100.00;99569.00;5029189;28;20504;-81
2022/04/05 07:32:53;;;;;;;1149.20;999.90;;;;;;;4.87;100.00;99576.00;5025420;28;20057;-81
2022/04/05 07:35:28;;;;;;;1094.68;999.90;;;;;;;4.93;100.00;99572.22;5028715;28;20709;-81
2022/04/05 07:38:01;;;;;;;607.25;567.97;;;;;;;4.87;100.00;99580.59;5028071;28;20817;-81
2022/04/05 07:40:50;;;;;;;413.60;388.55;;;;;;;5.04;100.00;99581.13;5025462;28;20049;-82
2022/04/05 07:43:20;;;;;;;355.75;335.23;;;;;;;5.03;100.00;99581.41;5025568;28;20053;-81
2022/04/05 07:45:54;;;;;;;157.00;148.65;;;;;;;5.02;100.00;99585.19;5016543;28;20421;-81
2022/04/05 07:48:29;;;;;;;107.88;102.28;;;;;;;5.13;100.00;99594.09;5020964;28;20553;-81
2022/04/05 07:51:04;;;;;;;91.10;86.35;;;;;;;5.06;100.00;99588.94;5024112;28;20106;-80
2022/04/05 07:53:37;;;;;;;77.30;73.18;;;;;;;5.15;100.00;99590.03;5039170;28;20056;-81
2022/04/05 07:56:12;;;;;;;61.05;57.75;;;;;;;5.11;100.00;99588.97;5026468;28;20045;-80
2022/04/05 07:58:42;;;;;;;50.63;47.92;;;;;;;5.33;100.00;99577.06;5038759;28;20056;-80
2022/04/05 08:01:15;;;;;;;49.35;46.70;;;;;;;5.44;100.00;99587.56;5022337;28;20064;-81
2022/04/05 08:03:43;;;;;;;56.67;53.67;;;;;;;5.41;100.00;99584.59;5019586;28;20056;-81
2022/04/05 08:06:18;;;;;;;53.22;50.38;;;;;;;5.71;100.00;99586.41;5020756;28;20057;-81
2022/04/05 08:08:51;;;;;;;49.95;47.28;;;;;;;5.57;100.00;99580.78;5020082;28;20049;-81
2022/04/05 08:11:24;;;;;;;35.42;33.53;;;;;;;5.72;100.00;99579.94;5018996;28;20053;-81
2022/04/05 08:13:57;;;;;;;25.38;23.98;;;;;;;5.52;100.00;99583.50;5024361;28;20053;-80
2022/04/05 08:16:30;;;;;;;24.10;22.70;;;;;;;5.51;100.00;99589.16;5024259;28;20056;-80
2022/04/05 08:19:04;;;;;;;25.55;24.15;;;;;;;5.47;100.00;99580.81;5026485;28;20087;-79
2022/04/05 08:21:39;;;;;;;20.67;19.48;;;;;;;5.68;100.00;99588.88;5019952;28;20092;-80
2022/04/05 08:24:07;;;;;;;21.10;19.90;;;;;;;5.72;100.00;99582.66;5021362;28;21333;-81
2022/04/05 08:26:40;;;;;;;18.00;16.90;;;;;;;5.64;100.00;99599.41;5019916;28;20056;-80
2022/04/05 08:29:08;;;;;;;15.02;14.13;;;;;;;5.59;100.00;99586.75;5018563;28;20048;-81
2022/04/05 08:31:37;;;;;;;12.02;11.23;;;;;;;5.51;100.00;99595.38;5020969;28;20461;-81
2022/04/05 08:34:10;;;;;;;10.73;10.02;;;;;;;5.56;100.00;99591.88;5021986;28;20057;-81
2022/04/05 08:36:44;;;;;;;10.25;9.55;;;;;;;5.69;100.00;99598.56;5025838;28;20061;-81
2022/04/05 08:39:17;;;;;;;9.15;8.55;;;;;;;5.56;100.00;99608.06;5025362;28;20056;-81
2022/04/05 08:41:52;;;;;;;6.53;6.03;;;;;;;5.11;100.00;99613.22;5039844;28;20059;-80
2022/04/05 08:44:25;;;;;;;6.00;5.60;;;;;;;4.42;100.00;99620.69;5029678;28;20056;-81
2022/04/05 08:47:00;;;;;;;5.93;5.53;;;;;;;4.18;100.00;99618.41;5021814;28;20052;-80
2022/04/05 08:49:33;;;;;;;8.25;7.65;;;;;;;4.16;100.00;99607.09;5022343;28;20056;-80
2022/04/05 08:52:09;;;;;;;9.43;8.80;;;;;;;4.09;100.00;99612.72;5023923;28;20053;-81
2022/04/05 08:54:42;;;;;;;12.10;11.30;;;;;;;4.11;100.00;99617.84;5028399;28;20057;-81
2022/04/05 08:57:15;;;;;;;16.25;15.25;;;;;;;4.54;100.00;99617.72;5025225;28;20072;-80
2022/04/05 08:59:48;;;;;;;22.85;21.55;;;;;;;4.84;100.00;99614.28;5023741;28;20769;-81
2022/04/05 09:02:25;;;;;;;29.40;27.80;;;;;;;4.85;100.00;99615.09;5025245;28;20059;-80
2022/04/05 09:04:58;;;;;;;38.58;36.47;;;;;;;5.11;100.00;99605.94;5025394;28;20045;-81
2022/04/05 09:07:35;;;;;;;43.65;41.33;;;;;;;5.42;100.00;99616.69;5025609;28;20052;-80
2022/04/05 09:10:11;;;;;;;43.83;41.47;;;;;;;5.41;100.00;99612.41;5021142;28;20049;-81
2022/04/05 09:12:46;;;;;;;40.80;38.60;;;;;;;5.55;100.00;99615.34;5020191;28;20826;-81
2022/04/05 09:15:26;;;;;;;35.30;33.40;;;;;;;5.43;100.00;99604.84;5015465;28;20048;-80
2022/04/05 09:17:59;;;;;;;24.92;23.52;;;;;;;5.30;100.00;99624.25;5015738;28;20063;-81
2022/04/05 09:20:44;;;;;;;20.52;19.33;;;;;;;5.45;100.00;99618.06;5017133;28;20057;-80
2022/04/05 09:23:26;;;;;;;21.40;20.20;;;;;;;5.37;100.00;99624.00;5021856;28;20777;-80
2022/04/05 09:25:59;;;;;;;19.47;18.37;;;;;;;5.30;100.00;99616.16;5039822;28;20053;-81
2022/04/05 09:28:29;;;;;;;18.55;17.45;;;;;;;5.32;100.00;99630.22;5019232;28;20298;-80
2022/04/05 09:30:59;;;;;;;15.40;14.50;;;;;;;5.28;100.00;99629.13;5023495;28;20049;-81
2022/04/05 09:33:34;;;;;;;12.13;11.32;;;;;;;5.17;100.00;99622.13;5018590;28;20057;-81
2022/04/05 09:36:10;;;;;;;14.57;13.68;;;;;;;4.98;100.00;99644.22;5019737;28;20069;-81
2022/04/05 09:38:42;;;;;;;12.43;11.63;;;;;;;4.69;100.00;99641.22;5027683;28;20052;-79
2022/04/05 09:41:19;;;;;;;14.07;13.18;;;;;;;4.57;100.00;99634.19;5024524;28;20056;-83
2022/04/05 09:43:59;;;;;;;16.15;15.15;;;;;;;4.57;100.00;99625.28;5025820;28;20068;-81
2022/04/05 09:46:35;;;;;;;20.15;18.98;;;;;;;4.67;100.00;99624.47;5025174;28;20052;-82
2022/04/05 09:49:11;;;;;;;34.08;32.20;;;;;;;5.02;100.00;99621.03;5024573;28;20050;-81
2022/04/05 09:51:46;;;;;;;55.17;52.22;;;;;;;5.13;100.00;99611.06;5024498;28;20634;-80
2022/04/05 09:54:22;;;;;;;60.35;57.13;;;;;;;5.38;100.00;99621.03;5039623;28;20053;-81
2022/04/05 09:57:06;;;;;;;74.22;70.28;;;;;;;5.73;100.00;99610.44;5026009;28;20063;-81
2022/04/05 09:59:41;;;;;;;108.95;103.30;;;;;;;5.82;100.00;99616.91;5025623;28;20061;-80
2022/04/05 10:02:16;;;;;;;120.22;113.97;;;;;;;5.90;100.00;99615.53;5024951;28;20187;-82
2022/04/05 10:05:01;;;;;;;126.05;119.53;;;;;;;5.96;100.00;99612.53;5032180;28;20061;-81
2022/04/05 10:07:35;;;;;;;108.18;102.55;;;;;;;6.07;100.00;99605.22;5046528;28;20064;-81
2022/04/05 10:10:07;;;;;;;67.68;64.05;;;;;;;5.99;100.00;99608.50;5025846;28;20596;-82
2022/04/05 10:12:41;;;;;;;44.30;41.90;;;;;;;6.22;100.00;99606.28;5024685;28;20064;-80
2022/04/05 10:15:14;;;;;;;29.48;27.88;;;;;;;5.96;100.00;99601.72;5024917;28;20060;-81
2022/04/05 10:17:47;;;;;;;22.10;20.80;;;;;;;6.20;100.00;99598.44;5029502;28;20057;-82
2022/04/05 10:20:21;;;;;;;;;;;;;;;6.37;100.00;99602.69;5027043;28;20982;-81
2022/04/05 10:22:56;;;;;;;;;;;;;;;6.60;100.00;99603.88;5027234;28;19943;-81
2022/04/05 10:25:26;;;;;;;;;;;;;;;6.81;100.00;99599.19;5025552;28;19928;-81
2022/04/05 10:27:54;;;;;;;25.35;23.95;;;;;;;7.01;100.00;99602.81;5028913;28;20369;-80
2022/04/05 10:30:33;;;;;;;22.50;21.20;;;;;;;6.90;100.00;99602.09;5025551;28;20099;-82
2022/04/05 10:33:07;;;;;;;16.33;15.32;;;;;;;6.68;100.00;99591.69;5050939;28;20056;-81
2022/04/05 10:35:50;;;;;;;7.30;6.80;;;;;;;6.72;100.00;99596.25;5016958;28;20053;-80
2022/04/05 10:38:24;;;;;;;5.70;5.30;;;;;;;6.74;100.00;99607.59;5018166;28;20056;-81
2022/04/05 10:41:13;;;;;;;5.35;4.95;;;;;;;7.00;100.00;99601.19;5016504;28;20045;-82
2022/04/05 10:43:49;;;;;;;5.63;5.22;;;;;;;6.96;100.00;99590.94;5017365;28;20530;-81
2022/04/05 10:46:40;;;;;;;4.10;3.80;;;;;;;7.04;100.00;99600.34;5024173;28;20398;-81
2022/04/05 10:49:33;;;;;;;3.97;3.67;;;;;;;7.01;100.00;99602.81;5035114;28;20056;-80
2022/04/05 10:52:06;;;;;;;4.05;3.75;;;;;;;6.98;100.00;99596.88;5021101;28;20048;-81
2022/04/05 10:54:43;;;;;;;4.07;3.78;;;;;;;6.95;100.00;99605.56;5025068;28;20045;-81
2022/04/05 10:57:38;;;;;;;4.43;4.13;;;;;;;6.89;100.00;99593.19;5022892;28;20088;-80
2022/04/05 11:00:21;;;;;;;4.80;4.50;;;;;;;6.94;100.00;99598.53;5021266;28;20048;-81
2022/04/05 11:03:06;;;;;;;4.22;3.92;;;;;;;7.06;100.00;99592.75;5030739;28;20053;-82
2022/04/05 11:05:40;;;;;;;;;;;;;;;6.96;100.00;99590.13;5026125;28;20045;-80
2022/04/05 11:08:15;;;;;;;4.63;4.32;;;;;;;6.93;100.00;99596.94;5023000;28;19939;-81
2022/04/05 11:10:54;;;;;;;3.85;3.60;;;;;;;6.73;100.00;99597.06;5037824;28;20052;-79
2022/04/05 11:13:33;;;;;;;3.20;3.00;;;;;;;6.71;100.00;99596.53;5028451;28;20131;-80
2022/04/05 11:16:10;;;;;;;3.33;3.13;;;;;;;6.80;100.00;99592.16;5025382;28;20067;-81
2022/04/05 11:18:45;;;;;;;3.90;3.60;;;;;;;6.67;100.00;99592.78;5030065;28;20075;-81
2022/04/05 11:21:13;;;;;;;3.88;3.58;;;;;;;6.97;100.00;99607.97;5025189;28;20053;-81
2022/04/05 11:23:49;;;;;;;4.53;4.22;;;;;;;6.92;100.00;99606.13;5028517;28;20068;-80
2022/04/05 11:26:29;;;;;;;4.85;4.55;;;;;;;6.96;100.00;99603.66;5022053;28;20871;-80
2022/04/05 11:29:00;;;;;;;4.88;4.57;;;;;;;6.37;100.00;99603.50;5018588;28;20060;-80
2022/04/05 11:31:37;;;;;;;4.22;3.92;;;;;;;6.09;100.00;99611.19;5026221;28;20489;-79
2022/04/05 11:34:32;;;;;;;4.65;4.35;;;;;;;6.19;100.00;99610.31;5024869;28;20096;-81